createdAt,value
2022-08-26T00:01:41.769Z,27.75
2022-08-26T00:04:34.304Z,27.73
2022-08-26T00:07:24.481Z,27.70
2022-08-26T00:10:15.097Z,27.68
2022-08-26T00:13:05.994Z,27.66
2022-08-26T00:15:57.085Z,27.64
2022-08-26T00:18:46.780Z,27.61
2022-08-26T00:21:37.579Z,27.59
2022-08-26T00:24:31.537Z,27.55
2022-08-26T00:27:21.676Z,27.53
2022-08-26T00:30:22.735Z,27.52
2022-08-26T00:33:17.587Z,27.50
2022-08-26T00:36:09.496Z,27.50
2022-08-26T00:39:12.091Z,27.49
2022-08-26T00:42:03.188Z,27.49
2022-08-26T00:44:53.914Z,27.49
2022-08-26T00:47:49.278Z,27.49
2022-08-26T00:50:44.920Z,27.48
2022-08-26T00:53:41.465Z,27.48
2022-08-26T00:56:38.368Z,27.46
2022-08-26T00:59:32.971Z,27.45
2022-08-26T01:02:25.085Z,27.43
2022-08-26T01:05:16.146Z,27.42
2022-08-26T01:08:07.474Z,27.39
2022-08-26T01:10:59.719Z,27.36
2022-08-26T01:13:50.962Z,27.34
2022-08-26T01:16:44.351Z,27.34
2022-08-26T01:19:39.586Z,27.33
2022-08-26T01:22:36.738Z,27.32
2022-08-26T01:25:30.445Z,27.32
2022-08-26T01:28:24.733Z,27.30
2022-08-26T01:31:21.712Z,27.29
2022-08-26T01:34:18.408Z,27.29
2022-08-26T01:37:15.656Z,27.28
2022-08-26T01:40:08.691Z,27.26
2022-08-26T01:43:00.155Z,27.26
2022-08-26T01:45:54.583Z,27.26
2022-08-26T01:48:47.319Z,27.26
2022-08-26T01:51:45.878Z,27.26
2022-08-26T01:54:38.852Z,27.23
2022-08-26T01:57:31.908Z,27.22
2022-08-26T02:00:23.983Z,27.21
2022-08-26T02:03:22.367Z,27.19
2022-08-26T02:06:13.033Z,27.18
2022-08-26T02:09:06.115Z,27.17
2022-08-26T02:11:57.319Z,27.17
2022-08-26T02:14:52.054Z,27.19
2022-08-26T02:17:45.103Z,27.18
2022-08-26T02:20:35.797Z,27.17
2022-08-26T02:23:28.430Z,27.18
2022-08-26T02:26:21.918Z,27.17
2022-08-26T02:29:17.787Z,27.16
2022-08-26T02:32:13.055Z,27.14
2022-08-26T02:35:10.188Z,27.14
2022-08-26T02:38:01.682Z,27.13
2022-08-26T02:40:54.950Z,27.11
2022-08-26T02:43:45.772Z,27.09
2022-08-26T02:46:35.945Z,27.08
2022-08-26T02:49:31.231Z,27.08
2022-08-26T02:52:22.020Z,27.08
2022-08-26T02:55:12.831Z,27.07
2022-08-26T02:58:03.576Z,27.05
2022-08-26T03:00:54.325Z,27.04
2022-08-26T03:03:44.853Z,27.03
2022-08-26T03:06:35.323Z,27.02
2022-08-26T03:09:29.901Z,27.01
2022-08-26T03:12:20.471Z,27.00
2022-08-26T03:15:16.398Z,27.00
2022-08-26T03:18:09.097Z,26.99
2022-08-26T03:21:06.278Z,26.98
2022-08-26T03:23:59.440Z,26.97
2022-08-26T03:27:00.297Z,26.97
2022-08-26T03:30:14.793Z,26.96
2022-08-26T03:33:06.478Z,26.93
2022-08-26T03:35:57.257Z,26.91
2022-08-26T03:38:47.932Z,26.91
2022-08-26T03:41:39.084Z,26.91
2022-08-26T03:44:29.690Z,26.91
2022-08-26T03:47:20.904Z,26.90
2022-08-26T03:50:14.175Z,26.88
2022-08-26T03:53:07.505Z,26.87
2022-08-26T03:56:03.609Z,26.87
2022-08-26T03:58:55.006Z,26.86
2022-08-26T04:01:45.259Z,26.86
2022-08-26T04:04:36.112Z,26.85
2022-08-26T04:07:26.702Z,26.84
2022-08-26T04:10:22.186Z,26.83
2022-08-26T04:13:19.555Z,26.80
2022-08-26T04:16:10.377Z,26.77
2022-08-26T04:19:03.308Z,26.76
2022-08-26T04:21:55.043Z,26.76
2022-08-26T04:24:45.692Z,26.76
2022-08-26T04:27:36.190Z,26.77
2022-08-26T04:30:28.958Z,26.77
2022-08-26T04:33:18.956Z,26.78
2022-08-26T04:36:23.694Z,26.78
2022-08-26T04:39:18.733Z,26.79
2022-08-26T04:42:11.079Z,26.78
2022-08-26T04:45:02.366Z,26.78
2022-08-26T04:47:59.485Z,26.79
2022-08-26T04:50:51.603Z,26.78
2022-08-26T04:53:42.293Z,26.79
2022-08-26T04:56:35.337Z,26.80
2022-08-26T04:59:25.930Z,26.81
2022-08-26T05:02:16.278Z,26.81
2022-08-26T05:05:07.951Z,26.82
2022-08-26T05:08:00.966Z,26.82
2022-08-26T05:10:56.372Z,26.85
2022-08-26T05:13:50.001Z,27.18
2022-08-26T05:16:40.981Z,27.50
2022-08-26T05:19:32.683Z,27.71
2022-08-26T05:22:23.555Z,27.85
2022-08-26T05:25:16.124Z,27.92
2022-08-26T05:28:08.279Z,27.99
2022-08-26T05:31:02.220Z,28.04
2022-08-26T05:33:53.081Z,28.08
2022-08-26T05:36:45.279Z,28.13
2022-08-26T05:39:37.091Z,28.19
2022-08-26T05:42:28.750Z,28.26
2022-08-26T05:45:19.426Z,28.31
2022-08-26T05:48:10.547Z,28.33
2022-08-26T05:51:08.611Z,28.35
2022-08-26T05:54:00.416Z,28.30
2022-08-26T05:56:52.482Z,28.22
2022-08-26T05:59:45.519Z,28.15
2022-08-26T06:02:35.875Z,28.11
2022-08-26T06:05:25.876Z,28.09
2022-08-26T06:08:21.296Z,28.10
2022-08-26T06:11:18.708Z,28.09
2022-08-26T06:14:10.962Z,28.09
2022-08-26T06:17:03.036Z,28.10
2022-08-26T06:19:53.278Z,28.14
2022-08-26T06:23:01.683Z,28.25
2022-08-26T06:25:53.624Z,28.31
2022-08-26T06:28:45.561Z,28.39
2022-08-26T06:31:38.281Z,28.47
2022-08-26T06:34:31.098Z,28.48
2022-08-26T06:37:21.242Z,28.47
2022-08-26T06:40:12.732Z,28.47
2022-08-26T06:43:02.857Z,28.46
2022-08-26T06:46:01.031Z,28.45
2022-08-26T06:48:52.215Z,28.41
2022-08-26T06:51:43.727Z,28.38
2022-08-26T06:54:33.409Z,28.37
2022-08-26T06:57:23.424Z,28.38
2022-08-26T07:00:15.553Z,28.30
2022-08-26T07:03:06.182Z,28.26
2022-08-26T07:06:04.346Z,28.28
2022-08-26T07:09:01.487Z,28.31
2022-08-26T07:11:55.718Z,28.34
2022-08-26T07:14:47.491Z,28.36
2022-08-26T07:17:39.268Z,28.34
2022-08-26T07:20:30.540Z,28.35
2022-08-26T07:23:21.137Z,28.42
2022-08-26T07:26:16.420Z,28.49
2022-08-26T07:29:07.677Z,28.56
2022-08-26T07:31:58.323Z,28.64
2022-08-26T07:34:47.907Z,28.72
2022-08-26T07:37:39.474Z,28.79
2022-08-26T07:40:29.753Z,28.81
2022-08-26T07:43:20.122Z,28.85
2022-08-26T07:46:15.921Z,28.89
2022-08-26T07:49:06.779Z,28.84
2022-08-26T07:51:58.565Z,28.82
2022-08-26T07:54:49.054Z,28.83
2022-08-26T07:57:40.140Z,28.90
2022-08-26T08:00:32.926Z,28.97
2022-08-26T08:03:23.955Z,29.01
2022-08-26T08:06:14.049Z,29.03
2022-08-26T08:09:05.227Z,29.04
2022-08-26T08:11:57.503Z,29.07
2022-08-26T08:14:49.125Z,29.11
2022-08-26T08:17:43.054Z,29.15
2022-08-26T08:20:34.248Z,29.15
2022-08-26T08:23:26.522Z,29.13
2022-08-26T08:26:18.210Z,29.13
2022-08-26T08:29:09.111Z,29.13
2022-08-26T08:32:00.622Z,29.17
2022-08-26T08:34:53.452Z,29.23
2022-08-26T08:37:45.254Z,29.27
2022-08-26T08:40:40.357Z,29.28
2022-08-26T08:43:41.443Z,29.27
2022-08-26T08:46:31.931Z,29.25
2022-08-26T08:49:22.162Z,29.13
2022-08-26T08:52:22.145Z,28.99
2022-08-26T08:55:18.040Z,28.88
2022-08-26T08:58:15.041Z,28.91
2022-08-26T09:01:15.870Z,29.00
2022-08-26T09:04:20.507Z,29.03
2022-08-26T09:07:14.803Z,29.03
2022-08-26T09:10:24.109Z,29.14
2022-08-26T09:13:25.414Z,29.28
2022-08-26T09:16:20.802Z,29.39
2022-08-26T09:19:22.854Z,29.57
2022-08-26T09:22:28.678Z,29.73
2022-08-26T09:25:19.063Z,29.83
2022-08-26T09:28:17.048Z,29.93
2022-08-26T09:31:16.011Z,30.00
2022-08-26T09:34:17.793Z,30.10
2022-08-26T09:37:08.875Z,30.21
2022-08-26T09:40:17.443Z,30.25
2022-08-26T09:43:16.088Z,30.27
2022-08-26T09:46:25.890Z,30.36
2022-08-26T09:49:29.905Z,30.42
2022-08-26T09:52:27.926Z,30.41
2022-08-26T09:55:24.422Z,30.35
2022-08-26T09:58:32.610Z,30.29
2022-08-26T10:01:33.176Z,30.24
2022-08-26T10:04:27.214Z,30.21
2022-08-26T10:07:37.289Z,30.16
2022-08-26T10:10:33.270Z,30.12
2022-08-26T10:13:29.532Z,30.09
2022-08-26T10:16:25.451Z,30.00
2022-08-26T10:19:23.915Z,29.94
2022-08-26T10:22:25.779Z,29.88
2022-08-26T10:25:18.958Z,29.86
2022-08-26T10:28:19.650Z,29.87
2022-08-26T10:31:20.000Z,29.89
2022-08-26T10:34:14.381Z,29.96
2022-08-26T10:37:14.614Z,30.13
2022-08-26T10:40:14.810Z,30.22
2022-08-26T10:43:11.724Z,30.35
2022-08-26T10:46:05.800Z,30.43
2022-08-26T10:49:00.574Z,30.52
2022-08-26T10:52:01.796Z,30.64
2022-08-26T10:55:03.050Z,30.68
2022-08-26T10:58:04.995Z,30.75
2022-08-26T11:01:22.811Z,30.86
2022-08-26T11:04:25.357Z,30.94
2022-08-26T11:07:38.276Z,31.02
2022-08-26T11:11:05.229Z,30.97
2022-08-26T11:14:09.782Z,30.68
2022-08-26T11:17:03.175Z,30.28
2022-08-26T11:20:09.276Z,29.94
2022-08-26T11:23:50.569Z,29.65
2022-08-26T11:26:56.094Z,29.42
2022-08-26T11:30:08.868Z,29.29
2022-08-26T11:33:01.305Z,29.24
2022-08-26T11:35:53.909Z,29.20
2022-08-26T11:38:46.945Z,29.21
2022-08-26T11:41:37.700Z,29.26
2022-08-26T11:44:30.308Z,29.30
2022-08-26T11:47:30.311Z,29.38
2022-08-26T11:50:26.140Z,29.45
2022-08-26T11:53:21.873Z,29.56
2022-08-26T11:56:18.944Z,29.65
2022-08-26T11:59:16.764Z,29.68
2022-08-26T12:02:14.345Z,29.64
2022-08-26T12:05:05.498Z,29.58
2022-08-26T12:07:56.573Z,29.65
2022-08-26T12:10:50.367Z,29.70
2022-08-26T12:13:42.398Z,29.77
2022-08-26T12:16:36.603Z,29.82
2022-08-26T12:19:32.718Z,29.87
2022-08-26T12:22:26.861Z,29.86
2022-08-26T12:25:25.506Z,29.75
2022-08-26T12:28:18.301Z,29.64
2022-08-26T12:31:10.464Z,29.61
2022-08-26T12:34:04.709Z,29.65
2022-08-26T12:37:01.046Z,29.79
2022-08-26T12:39:51.238Z,29.95
2022-08-26T12:42:44.772Z,30.10
2022-08-26T12:45:38.327Z,30.18
2022-08-26T12:48:31.155Z,30.21
2022-08-26T12:51:27.051Z,30.12
2022-08-26T12:54:19.116Z,30.02
2022-08-26T12:57:14.648Z,29.96
2022-08-26T13:00:33.016Z,29.88
2022-08-26T13:03:43.997Z,29.75
2022-08-26T13:06:35.407Z,29.64
2022-08-26T13:09:38.663Z,29.53
2022-08-26T13:12:35.466Z,29.37
2022-08-26T13:15:29.093Z,29.25
2022-08-26T13:18:23.272Z,29.14
2022-08-26T13:21:18.294Z,29.06
2022-08-26T13:24:11.902Z,28.96
2022-08-26T13:27:04.341Z,28.88
2022-08-26T13:29:57.249Z,28.84
2022-08-26T13:32:49.050Z,28.78
2022-08-26T13:35:39.699Z,28.71
2022-08-26T13:38:33.231Z,28.64
2022-08-26T13:41:29.115Z,28.59
2022-08-26T13:44:21.670Z,28.54
2022-08-26T13:47:13.788Z,28.49
2022-08-26T13:50:04.345Z,28.44
2022-08-26T13:52:55.222Z,28.40
2022-08-26T13:55:45.645Z,28.38
2022-08-26T13:58:35.985Z,28.36
2022-08-26T14:01:28.043Z,28.34
2022-08-26T14:04:23.331Z,28.29
2022-08-26T14:07:19.733Z,28.25
2022-08-26T14:10:11.012Z,28.25
2022-08-26T14:13:02.041Z,28.22
2022-08-26T14:15:54.624Z,28.19
2022-08-26T14:18:50.468Z,28.16
2022-08-26T14:21:41.866Z,28.13
2022-08-26T14:24:33.156Z,28.09
2022-08-26T14:27:25.292Z,28.08
2022-08-26T14:30:15.948Z,28.07
2022-08-26T14:33:06.981Z,28.07
2022-08-26T14:36:17.687Z,28.08
2022-08-26T14:39:10.973Z,28.10
2022-08-26T14:42:02.735Z,28.11
2022-08-26T14:44:57.697Z,28.18
2022-08-26T14:47:49.207Z,28.27
2022-08-26T14:50:40.037Z,28.41
2022-08-26T14:53:48.110Z,28.54
2022-08-26T14:56:42.538Z,28.63
2022-08-26T14:59:35.496Z,28.69
2022-08-26T15:02:33.134Z,28.80
2022-08-26T15:05:25.055Z,28.89
2022-08-26T15:08:16.229Z,28.96
2022-08-26T15:11:06.636Z,28.99
2022-08-26T15:13:57.397Z,29.01
2022-08-26T15:16:47.168Z,29.02
2022-08-26T15:19:36.985Z,29.04
2022-08-26T15:22:29.457Z,29.10
2022-08-26T15:25:20.567Z,29.14
2022-08-26T15:28:10.927Z,29.18
2022-08-26T15:31:02.123Z,29.20
2022-08-26T15:33:53.771Z,29.20
2022-08-26T15:36:44.950Z,29.22
2022-08-26T15:39:38.267Z,29.25
2022-08-26T15:42:29.756Z,29.21
2022-08-26T15:45:25.927Z,29.19
2022-08-26T15:48:17.482Z,29.15
2022-08-26T15:51:10.254Z,29.07
2022-08-26T15:54:01.065Z,29.09
2022-08-26T15:56:52.465Z,29.13
2022-08-26T15:59:43.052Z,29.15
2022-08-26T16:02:33.515Z,29.15
2022-08-26T16:05:23.738Z,29.18
2022-08-26T16:08:15.659Z,29.21
2022-08-26T16:11:06.457Z,29.21
2022-08-26T16:13:56.958Z,29.21
2022-08-26T16:16:47.747Z,29.21
2022-08-26T16:19:38.881Z,29.23
2022-08-26T16:22:29.503Z,29.25
2022-08-26T16:25:24.723Z,29.25
2022-08-26T16:28:26.104Z,29.23
2022-08-26T16:31:17.702Z,29.18
2022-08-26T16:34:08.724Z,29.14
2022-08-26T16:36:59.523Z,29.11
2022-08-26T16:39:50.175Z,29.10
2022-08-26T16:42:41.559Z,29.07
2022-08-26T16:45:32.867Z,29.10
2022-08-26T16:48:26.604Z,29.14
2022-08-26T16:51:20.121Z,29.16
2022-08-26T16:54:11.448Z,29.12
2022-08-26T16:57:01.511Z,29.09
2022-08-26T16:59:52.429Z,29.10
2022-08-26T17:02:43.465Z,29.16
2022-08-26T17:05:36.356Z,29.15
2022-08-26T17:08:28.609Z,29.09
2022-08-26T17:11:19.724Z,29.06
2022-08-26T17:14:10.078Z,29.02
2022-08-26T17:17:00.243Z,29.01
2022-08-26T17:19:51.643Z,29.09
2022-08-26T17:22:43.817Z,29.11
2022-08-26T17:25:34.796Z,29.17
2022-08-26T17:28:25.590Z,29.23
2022-08-26T17:31:16.454Z,29.26
2022-08-26T17:34:06.900Z,29.28
2022-08-26T17:36:56.894Z,29.26
2022-08-26T17:39:46.564Z,29.22
2022-08-26T17:42:37.674Z,29.17
2022-08-26T17:45:28.287Z,29.11
2022-08-26T17:48:18.441Z,29.05
2022-08-26T17:51:12.632Z,28.99
2022-08-26T17:54:03.969Z,28.95
2022-08-26T17:56:53.724Z,28.94
2022-08-26T17:59:44.547Z,28.95
2022-08-26T18:02:37.616Z,28.97
2022-08-26T18:05:27.823Z,28.98
2022-08-26T18:08:18.015Z,28.93
2022-08-26T18:11:11.245Z,28.82
2022-08-26T18:14:01.992Z,28.70
2022-08-26T18:16:52.661Z,28.63
2022-08-26T18:22:34.287Z,28.56
2022-08-26T18:25:25.688Z,28.53
2022-08-26T18:28:16.707Z,28.54
2022-08-26T18:31:09.201Z,28.56
2022-08-26T18:34:02.453Z,28.59
2022-08-26T18:36:55.852Z,28.64
2022-08-26T18:39:46.180Z,28.66
2022-08-26T18:42:36.437Z,28.66
2022-08-26T18:45:26.138Z,28.67
2022-08-26T18:48:18.891Z,28.69
2022-08-26T18:51:12.598Z,28.71
2022-08-26T18:54:05.513Z,28.69
2022-08-26T18:56:59.586Z,28.65
2022-08-26T18:59:53.818Z,28.64
2022-08-26T19:02:52.246Z,28.61
2022-08-26T19:05:46.813Z,28.58
2022-08-26T19:08:37.198Z,28.64
2022-08-26T19:11:37.485Z,28.69
2022-08-26T19:14:33.221Z,28.74
2022-08-26T19:17:26.358Z,28.75
2022-08-26T19:20:16.829Z,28.77
2022-08-26T19:23:21.561Z,28.72
2022-08-26T19:26:17.279Z,28.68
2022-08-26T19:29:08.122Z,28.68
2022-08-26T19:31:58.765Z,28.72
2022-08-26T19:34:51.077Z,28.75
2022-08-26T19:37:40.867Z,28.78
2022-08-26T19:40:31.970Z,28.81
2022-08-26T19:43:21.573Z,28.82
2022-08-26T19:46:16.063Z,28.80
2022-08-26T19:49:09.890Z,28.77
2022-08-26T19:52:00.943Z,28.78
2022-08-26T19:54:51.367Z,28.75
2022-08-26T19:57:43.512Z,28.72
2022-08-26T20:00:35.789Z,28.66
2022-08-26T20:03:27.960Z,28.60
2022-08-26T20:06:20.057Z,28.52
2022-08-26T20:09:10.164Z,28.47
2022-08-26T20:12:00.386Z,28.45
2022-08-26T20:14:50.786Z,28.42
2022-08-26T20:17:41.750Z,28.39
2022-08-26T20:20:49.326Z,28.34
2022-08-26T20:23:39.679Z,28.38
2022-08-26T20:26:31.072Z,28.45
2022-08-26T20:29:22.353Z,28.50
2022-08-26T20:32:13.165Z,28.56
2022-08-26T20:35:03.168Z,28.58
2022-08-26T20:37:53.832Z,28.59
2022-08-26T20:40:43.957Z,28.55
2022-08-26T20:43:36.081Z,28.49
2022-08-26T20:46:27.355Z,28.42
2022-08-26T20:49:18.170Z,28.34
2022-08-26T20:52:08.357Z,28.26
2022-08-26T20:54:58.435Z,28.18
2022-08-26T20:57:51.704Z,28.15
2022-08-26T21:00:44.562Z,28.21
2022-08-26T21:03:35.038Z,28.30
2022-08-26T21:06:25.735Z,28.36
2022-08-26T21:09:17.896Z,28.32
2022-08-26T21:12:08.954Z,28.25
2022-08-26T21:15:01.820Z,28.17
2022-08-26T21:17:51.768Z,28.14
2022-08-26T21:20:41.979Z,28.09
2022-08-26T21:23:31.614Z,28.03
2022-08-26T21:26:21.422Z,28.01
2022-08-26T21:29:11.181Z,27.99
2022-08-26T21:32:00.935Z,27.97
2022-08-26T21:34:50.619Z,27.92
2022-08-26T21:37:40.688Z,27.93
2022-08-26T21:40:30.916Z,28.01
2022-08-26T21:43:35.052Z,28.08
2022-08-26T21:46:29.981Z,28.06
2022-08-26T21:49:20.119Z,28.01
2022-08-26T21:52:10.117Z,27.99
2022-08-26T21:55:09.120Z,28.00
2022-08-26T21:58:02.431Z,28.01
2022-08-26T22:00:53.676Z,27.98
2022-08-26T22:03:47.334Z,27.92
2022-08-26T22:06:43.379Z,27.89
2022-08-26T22:09:34.624Z,27.87
2022-08-26T22:12:24.824Z,27.80
2022-08-26T22:15:15.899Z,27.71
2022-08-26T22:18:06.127Z,27.65
2022-08-26T22:20:58.338Z,27.57
2022-08-26T22:23:51.529Z,27.37
2022-08-26T22:26:49.351Z,27.20
2022-08-26T22:29:40.324Z,27.14
2022-08-26T22:32:30.636Z,27.11
2022-08-26T22:35:28.936Z,27.16
2022-08-26T22:38:20.531Z,27.22
2022-08-26T22:41:11.866Z,27.30
2022-08-26T22:44:02.638Z,27.29
2022-08-26T22:46:55.102Z,27.21
2022-08-26T22:49:45.802Z,27.13
2022-08-26T22:52:36.693Z,27.05
2022-08-26T22:55:27.734Z,26.98
2022-08-26T22:58:20.170Z,26.93
2022-08-26T23:01:11.314Z,26.92
2022-08-26T23:04:02.783Z,26.93
2022-08-26T23:06:52.715Z,26.94
2022-08-26T23:09:43.606Z,26.89
2022-08-26T23:12:37.824Z,26.84
2022-08-26T23:15:28.697Z,26.80
2022-08-26T23:18:18.857Z,26.75
2022-08-26T23:21:10.683Z,26.71
2022-08-26T23:24:02.373Z,26.68
2022-08-26T23:26:52.982Z,26.67
2022-08-26T23:29:45.017Z,26.65
2022-08-26T23:32:34.841Z,26.62
2022-08-26T23:35:25.888Z,26.60
2022-08-26T23:38:16.417Z,26.58
2022-08-26T23:41:06.916Z,26.58
2022-08-26T23:44:02.849Z,26.57
2022-08-26T23:46:54.501Z,26.55
2022-08-26T23:49:45.323Z,26.53
2022-08-26T23:52:53.221Z,26.51
2022-08-26T23:55:43.618Z,26.48
2022-08-26T23:58:34.034Z,26.46
